createdAt,value
2019-03-20T00:00:11.828Z,70.30
2019-03-20T00:02:40.098Z,70.30
2019-03-20T00:05:08.339Z,70.70
2019-03-20T00:07:36.632Z,71.50
2019-03-20T00:10:06.819Z,71.30
2019-03-20T00:12:35.076Z,70.30
2019-03-20T00:15:05.663Z,70.50
2019-03-20T00:17:33.914Z,70.40
2019-03-20T00:20:02.177Z,69.80
2019-03-20T00:22:30.400Z,69.70
2019-03-20T00:24:58.748Z,69.70
2019-03-20T00:27:26.999Z,70.00
2019-03-20T00:29:55.252Z,69.00
2019-03-20T00:32:23.567Z,69.00
2019-03-20T00:35:00.511Z,68.70
2019-03-20T00:37:21.792Z,70.00
2019-03-20T00:39:50.026Z,70.50
2019-03-20T00:42:18.285Z,70.60
2019-03-20T00:44:46.602Z,71.10
2019-03-20T00:47:14.922Z,71.10
2019-03-20T00:49:43.187Z,71.80
2019-03-20T00:52:11.435Z,71.90
2019-03-20T00:54:39.660Z,71.80
2019-03-20T00:57:07.924Z,71.80
2019-03-20T00:59:36.146Z,71.20
2019-03-20T01:02:04.412Z,71.60
2019-03-20T01:04:32.652Z,72.10
2019-03-20T01:07:00.899Z,72.70
2019-03-20T01:09:29.158Z,72.70
2019-03-20T01:11:57.416Z,73.10
2019-03-20T01:14:25.683Z,73.00
2019-03-20T01:16:53.972Z,72.20
2019-03-20T01:19:22.207Z,72.10
2019-03-20T01:21:50.462Z,59.20
2019-03-20T01:24:18.733Z,59.40
2019-03-20T01:26:46.963Z,59.50
2019-03-20T01:29:15.224Z,59.50
2019-03-20T01:31:43.473Z,59.80
2019-03-20T01:34:11.706Z,58.70
2019-03-20T01:36:39.961Z,58.70
2019-03-20T01:39:08.190Z,59.10
2019-03-20T01:41:38.275Z,72.00
2019-03-20T01:44:06.430Z,72.70
2019-03-20T01:46:34.702Z,73.30
2019-03-20T01:49:02.966Z,73.50
2019-03-20T01:51:31.276Z,73.80
2019-03-20T01:53:59.566Z,73.60
2019-03-20T01:56:27.837Z,73.50
2019-03-20T01:58:56.075Z,74.40
2019-03-20T02:01:24.337Z,74.30
2019-03-20T02:03:52.566Z,74.30
2019-03-20T02:06:20.823Z,74.70
2019-03-20T02:08:49.051Z,74.60
2019-03-20T02:11:17.305Z,75.30
2019-03-20T02:13:45.551Z,75.20
2019-03-20T02:16:13.820Z,75.30
2019-03-20T02:18:42.101Z,75.90
2019-03-20T02:21:10.344Z,75.80
2019-03-20T02:23:38.704Z,75.50
2019-03-20T02:26:06.981Z,74.90
2019-03-20T02:28:35.222Z,76.00
2019-03-20T02:31:03.525Z,75.40
2019-03-20T02:33:31.915Z,75.70
2019-03-20T02:36:00.228Z,75.70
2019-03-20T02:38:28.494Z,75.50
2019-03-20T02:40:56.734Z,76.50
2019-03-20T02:43:28.000Z,76.70
2019-03-20T02:45:56.251Z,76.30
2019-03-20T02:48:24.512Z,76.80
2019-03-20T02:50:52.759Z,77.10
2019-03-20T02:53:21.119Z,77.40
2019-03-20T02:55:49.341Z,77.30
2019-03-20T02:58:17.604Z,77.50
2019-03-20T03:00:45.842Z,78.50
2019-03-20T03:03:14.101Z,79.00
2019-03-20T03:05:42.362Z,79.50
2019-03-20T03:08:10.680Z,79.80
2019-03-20T03:10:38.956Z,80.20
2019-03-20T03:13:07.218Z,81.10
2019-03-20T03:15:35.493Z,81.50
2019-03-20T03:18:03.790Z,82.30
2019-03-20T03:20:32.027Z,81.90
2019-03-20T03:23:00.295Z,83.60
2019-03-20T03:25:28.582Z,83.20
2019-03-20T03:27:56.834Z,83.90
2019-03-20T03:30:25.071Z,84.00
2019-03-20T03:32:53.492Z,84.90
2019-03-20T03:35:21.827Z,84.70
2019-03-20T03:37:50.103Z,84.80
2019-03-20T03:40:21.128Z,85.60
2019-03-20T03:42:49.350Z,86.10
2019-03-20T03:45:17.676Z,86.40
2019-03-20T03:47:45.957Z,86.60
2019-03-20T03:50:14.209Z,87.40
2019-03-20T03:52:42.546Z,87.70
2019-03-20T03:55:15.463Z,87.80
2019-03-20T03:57:43.830Z,88.50
2019-03-20T04:00:19.410Z,90.20
2019-03-20T04:02:47.652Z,90.80
2019-03-20T04:05:15.961Z,91.40
2019-03-20T04:07:44.261Z,92.30
2019-03-20T04:10:16.855Z,91.70
2019-03-20T04:12:45.189Z,91.80
2019-03-20T04:15:15.586Z,92.00
2019-03-20T04:17:43.874Z,85.50
2019-03-20T04:20:16.602Z,86.50
2019-03-20T04:22:44.910Z,86.70
2019-03-20T04:25:13.171Z,85.80
2019-03-20T04:27:41.434Z,84.00
2019-03-20T04:30:14.266Z,85.70
2019-03-20T04:32:42.506Z,83.70
2019-03-20T04:35:10.893Z,85.20
2019-03-20T04:37:39.171Z,84.90
2019-03-20T04:40:12.742Z,84.50
2019-03-20T04:42:40.982Z,84.60
2019-03-20T04:45:12.669Z,84.30
2019-03-20T04:47:41.163Z,84.50
2019-03-20T04:50:11.357Z,85.60
2019-03-20T04:52:39.596Z,87.00
2019-03-20T04:55:08.470Z,87.80
2019-03-20T04:57:36.745Z,87.90
2019-03-20T05:00:10.768Z,88.20
2019-03-20T05:02:39.034Z,88.00
2019-03-20T05:05:07.294Z,88.40
2019-03-20T05:07:35.592Z,89.80
2019-03-20T05:10:06.691Z,89.00
2019-03-20T05:12:34.969Z,88.90
2019-03-20T05:15:04.059Z,89.50
2019-03-20T05:17:32.309Z,89.10
2019-03-20T05:20:00.545Z,88.90
2019-03-20T05:22:28.812Z,89.10
2019-03-20T05:24:57.097Z,89.40
2019-03-20T05:27:25.346Z,89.80
2019-03-20T05:29:53.578Z,90.30
2019-03-20T05:32:21.840Z,90.40
2019-03-20T05:34:50.184Z,91.00
2019-03-20T05:37:18.462Z,91.10
2019-03-20T05:39:46.705Z,90.90
2019-03-20T05:42:15.223Z,79.60
2019-03-20T05:44:43.463Z,85.10
2019-03-20T05:47:11.756Z,85.70
2019-03-20T05:49:40.022Z,77.70
2019-03-20T05:52:08.255Z,81.30
2019-03-20T05:54:36.525Z,66.30
2019-03-20T05:57:04.799Z,66.20
2019-03-20T05:59:33.039Z,66.60
2019-03-20T06:02:01.290Z,66.70
2019-03-20T06:04:29.535Z,86.40
2019-03-20T06:06:57.871Z,88.40
2019-03-20T06:09:26.103Z,87.80
2019-03-20T06:11:54.468Z,87.80
2019-03-20T06:14:22.801Z,88.60
2019-03-20T06:16:51.069Z,87.60
2019-03-20T06:19:19.314Z,85.70
2019-03-20T06:21:47.637Z,86.40
2019-03-20T06:24:15.927Z,85.40
2019-03-20T06:26:44.180Z,86.10
2019-03-20T06:29:12.434Z,83.90
2019-03-20T06:31:40.666Z,84.90
2019-03-20T06:34:08.933Z,84.50
2019-03-20T06:36:37.183Z,84.80
2019-03-20T06:39:06.833Z,84.90
2019-03-20T06:41:35.092Z,83.90
2019-03-20T06:44:03.365Z,84.00
2019-03-20T06:46:31.676Z,84.20
2019-03-20T06:48:59.941Z,84.10
2019-03-20T06:51:28.165Z,82.90
2019-03-20T06:53:56.419Z,83.50
2019-03-20T06:56:24.677Z,83.20
2019-03-20T06:59:08.196Z,82.10
2019-03-20T07:01:36.671Z,82.50
2019-03-20T07:04:13.946Z,82.10
2019-03-20T07:06:51.370Z,81.00
2019-03-20T07:09:28.450Z,81.40
2019-03-20T07:11:56.694Z,80.80
2019-03-20T07:14:24.947Z,81.20
2019-03-20T07:16:53.215Z,80.30
2019-03-20T07:19:21.488Z,79.20
2019-03-20T07:21:49.718Z,79.20
2019-03-20T07:24:17.997Z,78.60
2019-03-20T07:26:46.244Z,78.20
2019-03-20T07:29:14.478Z,77.90
2019-03-20T07:31:42.750Z,76.80
2019-03-20T07:34:11.008Z,76.40
2019-03-20T07:36:39.291Z,76.80
2019-03-20T07:39:09.085Z,76.60
2019-03-20T07:41:37.324Z,71.70
2019-03-20T07:44:05.581Z,76.80
2019-03-20T07:46:34.153Z,77.30
2019-03-20T07:49:02.419Z,76.80
2019-03-20T07:51:31.682Z,77.30
2019-03-20T07:53:59.899Z,78.20
2019-03-20T07:56:28.144Z,76.00
2019-03-20T07:59:01.658Z,74.90
2019-03-20T08:01:29.924Z,74.20
2019-03-20T08:03:58.244Z,73.90
2019-03-20T08:06:26.505Z,73.10
2019-03-20T08:08:54.972Z,73.10
2019-03-20T08:11:23.220Z,72.70
2019-03-20T08:13:51.510Z,66.20
2019-03-20T08:16:19.794Z,72.60
2019-03-20T08:18:48.129Z,71.80
2019-03-20T08:21:16.441Z,71.90
2019-03-20T08:23:44.660Z,70.80
2019-03-20T08:26:12.912Z,69.90
2019-03-20T08:28:41.164Z,69.80
2019-03-20T08:31:09.427Z,69.10
2019-03-20T08:33:37.729Z,68.60
2019-03-20T08:36:06.009Z,67.10
2019-03-20T08:38:34.251Z,66.10
2019-03-20T08:41:02.488Z,64.50
2019-03-20T08:43:30.746Z,64.80
2019-03-20T08:46:01.897Z,64.70
2019-03-20T08:48:30.136Z,64.20
2019-03-20T08:50:58.406Z,63.30
2019-03-20T08:53:26.653Z,60.60
2019-03-20T08:55:54.903Z,58.80
2019-03-20T08:58:23.165Z,57.50
2019-03-20T09:00:51.529Z,57.10
2019-03-20T09:06:07.299Z,59.20
2019-03-20T09:08:35.588Z,58.10
2019-03-20T09:11:04.015Z,56.90
2019-03-20T09:13:32.268Z,56.60
2019-03-20T09:16:00.577Z,56.90
2019-03-20T09:18:30.535Z,56.50
2019-03-20T09:21:00.579Z,55.80
2019-03-20T09:23:28.911Z,54.40
2019-03-20T09:25:57.168Z,54.10
2019-03-20T09:28:25.407Z,54.10
2019-03-20T09:30:53.685Z,53.10
2019-03-20T09:33:21.951Z,52.60
2019-03-20T09:35:50.287Z,52.50
2019-03-20T09:38:21.498Z,51.50
2019-03-20T09:40:49.746Z,50.80
2019-03-20T09:43:18.072Z,50.50
2019-03-20T09:45:46.298Z,50.90
2019-03-20T09:48:14.581Z,51.30
2019-03-20T09:50:46.062Z,50.80
2019-03-20T09:53:14.336Z,50.00
2019-03-20T09:55:42.574Z,50.30
2019-03-20T09:58:11.974Z,50.70
2019-03-20T10:00:40.422Z,49.90
2019-03-20T10:03:08.652Z,49.30
2019-03-20T10:05:36.956Z,48.80
2019-03-20T10:08:05.229Z,49.30
2019-03-20T10:10:33.500Z,48.30
2019-03-20T10:13:01.778Z,47.80
2019-03-20T10:15:33.354Z,48.20
2019-03-20T10:18:01.676Z,47.30
2019-03-20T10:20:29.933Z,47.10
2019-03-20T10:22:58.177Z,47.80
2019-03-20T10:25:26.427Z,47.40
2019-03-20T10:27:54.705Z,48.10
2019-03-20T10:30:24.164Z,47.30
2019-03-20T10:32:52.580Z,46.80
2019-03-20T10:35:20.978Z,47.70
2019-03-20T10:37:49.224Z,41.20
2019-03-20T10:40:19.634Z,40.90
2019-03-20T10:42:47.872Z,40.70
2019-03-20T10:45:16.557Z,40.70
2019-03-20T10:47:46.153Z,40.20
2019-03-20T10:50:22.491Z,40.30
2019-03-20T10:52:50.777Z,39.90
2019-03-20T10:55:19.024Z,40.30
2019-03-20T10:57:47.285Z,39.70
2019-03-20T11:00:26.361Z,41.90
2019-03-20T11:02:54.608Z,40.90
2019-03-20T11:05:22.884Z,40.00
2019-03-20T11:07:51.158Z,39.90
2019-03-20T11:10:24.406Z,38.80
2019-03-20T11:12:52.687Z,38.90
2019-03-20T11:15:21.795Z,38.10
2019-03-20T11:17:50.078Z,38.40
2019-03-20T11:20:19.215Z,38.50
2019-03-20T11:22:47.485Z,38.30
2019-03-20T11:25:23.693Z,38.10
2019-03-20T11:27:51.953Z,37.90
2019-03-20T11:30:23.460Z,37.80
2019-03-20T11:32:51.758Z,36.80
2019-03-20T11:35:20.009Z,37.00
2019-03-20T11:37:50.042Z,37.10
2019-03-20T11:40:35.524Z,37.30
2019-03-20T11:43:03.953Z,36.90
2019-03-20T11:45:32.202Z,37.20
2019-03-20T11:48:00.458Z,37.40
2019-03-20T11:50:37.151Z,36.80
2019-03-20T11:53:10.939Z,36.90
2019-03-20T11:55:40.827Z,37.50
2019-03-20T11:58:09.220Z,36.50
2019-03-20T12:00:37.557Z,36.60
2019-03-20T12:03:08.825Z,36.90
2019-03-20T12:05:37.101Z,36.40
2019-03-20T12:08:05.338Z,35.60
2019-03-20T12:10:33.851Z,34.90
2019-03-20T12:13:02.102Z,34.80
2019-03-20T12:15:30.401Z,34.60
2019-03-20T12:17:58.666Z,33.10
2019-03-20T12:20:26.910Z,33.70
2019-03-20T12:22:55.253Z,34.70
2019-03-20T12:25:25.537Z,35.00
2019-03-20T12:27:53.854Z,34.10
2019-03-20T12:30:27.943Z,34.30
2019-03-20T12:32:56.511Z,35.60
2019-03-20T12:35:27.371Z,38.00
2019-03-20T12:37:55.693Z,33.90
2019-03-20T12:40:31.332Z,33.30
2019-03-20T12:42:59.594Z,33.40
2019-03-20T12:45:37.606Z,33.00
2019-03-20T12:48:10.300Z,32.10
2019-03-20T12:50:38.552Z,31.50
2019-03-20T12:53:08.242Z,31.60
2019-03-20T12:55:37.816Z,30.70
2019-03-20T12:58:15.560Z,30.00
2019-03-20T13:03:14.586Z,29.70
2019-03-20T13:05:42.884Z,28.60
2019-03-20T13:08:11.131Z,28.40
2019-03-20T13:10:39.386Z,28.20
2019-03-20T13:13:10.441Z,27.70
2019-03-20T13:15:40.122Z,27.50
2019-03-20T13:18:08.356Z,26.50
2019-03-20T13:20:36.665Z,26.40
2019-03-20T13:23:17.450Z,26.70
2019-03-20T13:25:45.738Z,27.00
2019-03-20T13:30:51.156Z,26.60
2019-03-20T13:33:25.586Z,27.60
2019-03-20T13:35:51.384Z,27.30
2019-03-20T13:38:19.656Z,26.20
2019-03-20T13:40:47.914Z,25.60
2019-03-20T13:43:16.176Z,24.80
2019-03-20T13:45:44.418Z,24.70
2019-03-20T13:48:12.670Z,24.50
2019-03-20T13:50:41.010Z,24.00
2019-03-20T13:53:09.248Z,23.40
2019-03-20T13:55:37.513Z,23.30
2019-03-20T13:58:05.783Z,23.00
2019-03-20T14:00:34.040Z,22.40
2019-03-20T14:03:02.366Z,22.70
2019-03-20T14:05:30.611Z,22.40
2019-03-20T14:07:58.897Z,22.00
2019-03-20T14:10:31.515Z,21.90
2019-03-20T14:12:59.854Z,21.60
2019-03-20T14:15:28.125Z,21.30
2019-03-20T14:17:56.351Z,21.40
2019-03-20T14:20:29.600Z,20.90
2019-03-20T14:22:57.857Z,20.30
2019-03-20T14:25:26.127Z,20.20
2019-03-20T14:27:54.373Z,20.50
2019-03-20T14:30:27.366Z,20.00
2019-03-20T14:32:55.677Z,20.30
2019-03-20T14:35:24.006Z,20.50
2019-03-20T14:37:52.281Z,20.40
2019-03-20T14:40:35.489Z,20.10
2019-03-20T14:42:55.546Z,19.90
2019-03-20T14:45:23.849Z,20.40
2019-03-20T14:47:52.190Z,20.50
2019-03-20T14:50:22.575Z,20.10
2019-03-20T14:52:50.866Z,19.80
2019-03-20T14:55:19.241Z,20.30
2019-03-20T14:57:47.483Z,19.60
2019-03-20T15:00:18.528Z,20.00
2019-03-20T15:02:46.768Z,19.40
2019-03-20T15:05:15.041Z,19.80
2019-03-20T15:07:43.295Z,19.90
2019-03-20T15:10:23.276Z,20.10
2019-03-20T15:12:52.479Z,20.00
2019-03-20T15:15:42.213Z,19.90
2019-03-20T15:18:10.467Z,19.70
2019-03-20T15:20:38.825Z,18.70
2019-03-20T15:23:07.075Z,18.80
2019-03-20T15:25:35.315Z,18.50
2019-03-20T15:28:03.602Z,18.70
2019-03-20T15:30:31.853Z,19.40
2019-03-20T15:33:00.119Z,19.50
2019-03-20T15:35:28.381Z,18.90
2019-03-20T15:37:56.610Z,19.40
2019-03-20T15:40:27.354Z,19.30
2019-03-20T15:42:55.615Z,19.90
2019-03-20T15:45:23.869Z,19.80
2019-03-20T15:47:54.774Z,20.50
2019-03-20T15:50:26.266Z,20.50
2019-03-20T15:52:54.295Z,21.00
2019-03-20T15:55:36.312Z,20.90
2019-03-20T15:58:05.332Z,21.20
2019-03-20T16:00:34.484Z,22.00
2019-03-20T16:03:06.019Z,22.20
2019-03-20T16:05:34.255Z,22.30
2019-03-20T16:08:02.576Z,22.70
2019-03-20T16:10:30.819Z,30.00
2019-03-20T16:12:59.075Z,23.20
2019-03-20T16:15:27.361Z,33.00
2019-03-20T16:17:55.606Z,38.10
2019-03-20T16:22:51.893Z,23.30
2019-03-20T16:25:22.246Z,25.00
2019-03-20T16:27:50.496Z,24.90
2019-03-20T16:30:23.526Z,25.10
2019-03-20T16:32:51.175Z,25.10
2019-03-20T16:35:19.504Z,25.20
2019-03-20T16:37:47.775Z,25.80
2019-03-20T16:40:26.893Z,26.20
2019-03-20T16:42:55.160Z,26.00
2019-03-20T16:45:28.814Z,26.00
2019-03-20T16:47:57.059Z,26.20
2019-03-20T16:50:25.296Z,26.80
2019-03-20T16:52:53.639Z,28.40
2019-03-20T16:55:21.948Z,27.40
2019-03-20T16:57:50.195Z,27.60
2019-03-20T17:00:28.745Z,27.90
2019-03-20T17:02:57.040Z,28.40
2019-03-20T17:05:26.568Z,28.40
2019-03-20T17:07:54.935Z,28.70
2019-03-20T17:10:38.239Z,29.10
2019-03-20T17:13:06.555Z,28.90
2019-03-20T17:15:38.873Z,29.20
2019-03-20T17:18:07.602Z,29.50
2019-03-20T17:20:35.874Z,29.90
2019-03-20T17:23:04.879Z,29.70
2019-03-20T17:25:33.113Z,30.00
2019-03-20T17:28:01.405Z,30.10
2019-03-20T17:30:32.921Z,30.60
2019-03-20T17:33:01.189Z,31.00
2019-03-20T17:35:29.498Z,31.20
2019-03-20T17:37:57.763Z,31.60
2019-03-20T17:40:27.147Z,32.00
2019-03-20T17:42:55.487Z,32.30
2019-03-20T17:45:26.071Z,32.50
2019-03-20T17:47:54.302Z,32.80
2019-03-20T17:50:29.287Z,33.20
2019-03-20T17:52:57.541Z,33.80
2019-03-20T17:55:25.816Z,33.20
2019-03-20T17:57:54.058Z,33.30
2019-03-20T18:00:47.545Z,33.50
2019-03-20T18:03:15.795Z,33.80
2019-03-20T18:05:44.065Z,34.00
2019-03-20T18:08:12.369Z,34.20
2019-03-20T18:10:40.660Z,34.60
2019-03-20T18:13:08.923Z,35.00
2019-03-20T18:15:37.168Z,35.20
2019-03-20T18:18:06.688Z,35.10
2019-03-20T18:20:35.025Z,35.20
2019-03-20T18:23:03.294Z,35.60
2019-03-20T18:25:31.537Z,44.10
2019-03-20T18:27:59.799Z,44.50
2019-03-20T18:30:36.261Z,44.70
2019-03-20T18:33:04.752Z,45.40
2019-03-20T18:35:33.022Z,48.10
2019-03-20T18:38:01.276Z,48.00
2019-03-20T18:40:29.523Z,48.90
2019-03-20T18:42:57.795Z,51.20
2019-03-20T18:45:26.692Z,51.20
2019-03-20T18:47:54.933Z,53.40
2019-03-20T18:50:23.942Z,48.00
2019-03-20T18:52:52.223Z,37.40
2019-03-20T18:55:20.576Z,37.50
2019-03-20T18:57:48.892Z,38.20
2019-03-20T19:00:31.227Z,38.30
2019-03-20T19:03:14.463Z,38.20
2019-03-20T19:06:01.218Z,38.70
2019-03-20T19:08:29.547Z,38.80
2019-03-20T19:10:58.069Z,39.30
2019-03-20T19:13:26.394Z,39.50
2019-03-20T19:15:54.659Z,39.30
2019-03-20T19:18:25.631Z,39.40
2019-03-20T19:20:54.022Z,39.90
2019-03-20T19:23:22.416Z,40.40
2019-03-20T19:25:50.663Z,40.00
2019-03-20T19:28:20.586Z,40.00
2019-03-20T19:30:48.868Z,40.40
2019-03-20T19:33:17.127Z,40.30
2019-03-20T19:35:45.429Z,40.70
2019-03-20T19:38:13.784Z,40.80
2019-03-20T19:40:42.201Z,41.00
2019-03-20T19:43:10.767Z,41.10
2019-03-20T19:45:39.023Z,41.60
2019-03-20T19:48:07.284Z,41.40
2019-03-20T19:50:35.685Z,41.10
2019-03-20T19:53:03.940Z,40.90
2019-03-20T19:55:32.194Z,40.90
2019-03-20T19:58:00.462Z,41.00
2019-03-20T20:00:28.767Z,41.10
2019-03-20T20:02:57.007Z,41.60
2019-03-20T20:05:25.317Z,41.10
2019-03-20T20:07:53.634Z,41.30
2019-03-20T20:10:21.928Z,41.50
2019-03-20T20:12:50.253Z,41.60
2019-03-20T20:15:28.857Z,41.60
2019-03-20T20:17:57.227Z,41.70
2019-03-20T20:20:39.386Z,41.80
2019-03-20T20:23:07.735Z,42.50
2019-03-20T20:25:35.971Z,41.60
2019-03-20T20:28:04.265Z,41.80
2019-03-20T20:30:32.543Z,42.00
2019-03-20T20:33:00.792Z,42.10
2019-03-20T20:35:29.059Z,42.40
2019-03-20T20:37:57.300Z,42.60
2019-03-20T20:40:27.859Z,42.80
2019-03-20T20:42:56.146Z,42.70
2019-03-20T20:45:24.414Z,42.90
2019-03-20T20:47:52.662Z,42.90
2019-03-20T20:50:21.010Z,43.00
2019-03-20T20:52:49.329Z,43.30
2019-03-20T20:55:18.924Z,43.50
2019-03-20T20:57:47.180Z,43.50
2019-03-20T21:00:26.182Z,43.80
2019-03-20T21:03:01.988Z,43.80
2019-03-20T21:05:30.257Z,44.10
2019-03-20T21:07:58.485Z,44.30
2019-03-20T21:10:29.746Z,44.60
2019-03-20T21:12:58.019Z,45.00
2019-03-20T21:15:32.558Z,45.10
2019-03-20T21:18:16.282Z,45.00
2019-03-20T21:20:47.073Z,45.10
2019-03-20T21:23:41.129Z,45.30
2019-03-20T21:26:24.759Z,45.30
2019-03-20T21:29:29.770Z,45.30
2019-03-20T21:32:16.651Z,45.60
2019-03-20T21:35:21.626Z,45.90
2019-03-20T21:38:07.809Z,45.80
2019-03-20T21:40:42.168Z,45.80
2019-03-20T21:43:48.870Z,45.90
2019-03-20T21:46:49.211Z,46.10
2019-03-20T21:49:17.498Z,46.20
2019-03-20T21:51:47.799Z,46.50
2019-03-20T21:54:51.326Z,46.80
2019-03-20T21:57:34.894Z,46.70
2019-03-20T22:00:25.404Z,46.70
2019-03-20T22:02:53.671Z,46.80
2019-03-20T22:05:43.022Z,47.00
2019-03-20T22:08:11.375Z,47.00
2019-03-20T22:11:17.772Z,46.90
2019-03-20T22:13:49.328Z,47.10
2019-03-20T22:16:23.543Z,47.20
2019-03-20T22:19:11.747Z,47.00
2019-03-20T22:21:58.777Z,46.90
2019-03-20T22:24:51.648Z,47.50
2019-03-20T22:27:40.667Z,47.80
2019-03-20T22:30:08.983Z,47.90
2019-03-20T22:32:59.665Z,47.80
2019-03-20T22:35:31.176Z,47.70
2019-03-20T22:38:01.022Z,48.10
2019-03-20T22:41:05.883Z,48.20
2019-03-20T22:43:40.009Z,48.20
2019-03-20T22:46:32.806Z,48.30
2019-03-20T22:49:10.208Z,48.30
2019-03-20T22:51:56.796Z,48.50
2019-03-20T22:54:48.787Z,48.90
2019-03-20T22:57:26.391Z,49.70
2019-03-20T22:59:54.705Z,49.50
2019-03-20T23:02:28.892Z,49.50
2019-03-20T23:04:59.379Z,49.40
2019-03-20T23:07:28.696Z,49.50
2019-03-20T23:09:56.943Z,49.50
2019-03-20T23:12:25.242Z,49.50
2019-03-20T23:14:53.517Z,49.50
2019-03-20T23:17:21.805Z,49.50
2019-03-20T23:19:50.227Z,49.80
2019-03-20T23:22:18.462Z,49.80
2019-03-20T23:24:47.055Z,49.80
2019-03-20T23:27:18.396Z,49.80
2019-03-20T23:29:46.662Z,50.00
2019-03-20T23:32:14.915Z,50.10
2019-03-20T23:34:43.189Z,50.30
2019-03-20T23:37:11.446Z,50.60
2019-03-20T23:39:39.713Z,50.70
2019-03-20T23:42:07.996Z,50.80
2019-03-20T23:44:36.238Z,50.80
2019-03-20T23:47:04.490Z,51.00
2019-03-20T23:49:32.772Z,51.20
2019-03-20T23:52:01.074Z,51.40
2019-03-20T23:54:33.071Z,51.40
2019-03-20T23:57:01.300Z,51.40
2019-03-20T23:59:29.628Z,51.70
